sensor_id;sensor_type;location;lat;lon;timestamp;pressure;altitude;pressure_sealevel;temperature;humidity
37792;BME280;29527;55.766;37.570;2023-02-10T00:01:45;100875.06;;;0.18;56.88
37792;BME280;29527;55.766;37.570;2023-02-10T00:04:12;100870.69;;;0.18;56.39
37792;BME280;29527;55.766;37.570;2023-02-10T00:06:38;100871.59;;;0.16;55.97
37792;BME280;29527;55.766;37.570;2023-02-10T00:09:06;100872.50;;;0.14;56.04
37792;BME280;29527;55.766;37.570;2023-02-10T00:11:32;100860.38;;;0.06;56.34
37792;BME280;29527;55.766;37.570;2023-02-10T00:14:17;100850.66;;;0.09;56.19
37792;BME280;29527;55.766;37.570;2023-02-10T00:16:43;100838.56;;;-0.01;56.39
37792;BME280;29527;55.766;37.570;2023-02-10T00:19:08;100841.81;;;0.12;56.27
37792;BME280;29527;55.766;37.570;2023-02-10T00:21:34;100849.75;;;0.10;56.13
37792;BME280;29527;55.766;37.570;2023-02-10T00:24:00;100846.31;;;0.07;56.38
37792;BME280;29527;55.766;37.570;2023-02-10T00:26:25;100845.41;;;0.09;56.06
37792;BME280;29527;55.766;37.570;2023-02-10T00:28:51;100808.16;;;-0.15;55.94
37792;BME280;29527;55.766;37.570;2023-02-10T00:31:16;100834.88;;;0.09;55.82
37792;BME280;29527;55.766;37.570;2023-02-10T00:33:44;100824.53;;;0.00;55.94
37792;BME280;29527;55.766;37.570;2023-02-10T00:36:12;100829.66;;;0.06;56.22
37792;BME280;29527;55.766;37.570;2023-02-10T00:38:40;100827.03;;;0.06;55.99
37792;BME280;29527;55.766;37.570;2023-02-10T00:41:09;100824.34;;;0.08;55.85
37792;BME280;29527;55.766;37.570;2023-02-10T00:43:35;100822.66;;;0.05;56.16
37792;BME280;29527;55.766;37.570;2023-02-10T00:46:14;100825.25;;;0.07;56.46
37792;BME280;29527;55.766;37.570;2023-02-10T00:48:40;100812.16;;;0.04;55.93
37792;BME280;29527;55.766;37.570;2023-02-10T00:51:06;100800.94;;;-0.05;55.99
37792;BME280;29527;55.766;37.570;2023-02-10T00:53:32;100794.78;;;-0.05;55.75
37792;BME280;29527;55.766;37.570;2023-02-10T00:55:58;100798.25;;;-0.03;55.79
37792;BME280;29527;55.766;37.570;2023-02-10T00:58:24;100799.88;;;0.04;56.00
37792;BME280;29527;55.766;37.570;2023-02-10T01:00:50;100787.69;;;0.00;55.61
37792;BME280;29527;55.766;37.570;2023-02-10T01:03:16;100757.44;;;-0.23;55.71
37792;BME280;29527;55.766;37.570;2023-02-10T01:05:41;100766.84;;;-0.11;55.63
37792;BME280;29527;55.766;37.570;2023-02-10T01:08:07;100744.28;;;-0.23;55.58
37792;BME280;29527;55.766;37.570;2023-02-10T01:10:33;100775.44;;;-0.04;55.53
37792;BME280;29527;55.766;37.570;2023-02-10T01:13:01;100774.59;;;-0.05;55.39
37792;BME280;29527;55.766;37.570;2023-02-10T01:15:26;100737.16;;;-0.19;55.65
37792;BME280;29527;55.766;37.570;2023-02-10T01:17:52;100761.38;;;-0.03;55.30
37792;BME280;29527;55.766;37.570;2023-02-10T01:20:18;100766.66;;;-0.03;55.01
37792;BME280;29527;55.766;37.570;2023-02-10T01:22:43;100762.28;;;-0.04;55.27
37792;BME280;29527;55.766;37.570;2023-02-10T01:25:09;100755.41;;;-0.10;55.14
37792;BME280;29527;55.766;37.570;2023-02-10T01:27:34;100757.16;;;-0.09;55.27
37792;BME280;29527;55.766;37.570;2023-02-10T01:30:00;100752.78;;;-0.11;54.79
37792;BME280;29527;55.766;37.570;2023-02-10T01:32:25;100739.72;;;-0.15;54.92
37792;BME280;29527;55.766;37.570;2023-02-10T01:34:51;100738.88;;;-0.17;55.03
37792;BME280;29527;55.766;37.570;2023-02-10T01:37:16;100737.22;;;-0.21;54.57
37792;BME280;29527;55.766;37.570;2023-02-10T01:39:41;100728.41;;;-0.20;55.12
37792;BME280;29527;55.766;37.570;2023-02-10T01:42:11;100726.75;;;-0.24;55.08
37792;BME280;29527;55.766;37.570;2023-02-10T01:47:06;100725.06;;;-0.28;55.26
37792;BME280;29527;55.766;37.570;2023-02-10T01:49:36;100730.47;;;-0.34;55.38
37792;BME280;29527;55.766;37.570;2023-02-10T01:52:08;100723.53;;;-0.40;55.77
37792;BME280;29527;55.766;37.570;2023-02-10T01:54:42;100714.75;;;-0.39;55.63
37792;BME280;29527;55.766;37.570;2023-02-10T01:57:08;100712.34;;;-0.50;55.75
37792;BME280;29527;55.766;37.570;2023-02-10T01:59:36;100717.47;;;-0.42;56.02
37792;BME280;29527;55.766;37.570;2023-02-10T02:02:04;100727.16;;;-0.44;55.84
37792;BME280;29527;55.766;37.570;2023-02-10T02:04:35;100722.75;;;-0.44;55.88
37792;BME280;29527;55.766;37.570;2023-02-10T02:07:03;100709.72;;;-0.50;55.95
37792;BME280;29527;55.766;37.570;2023-02-10T02:09:28;100707.09;;;-0.50;56.39
37792;BME280;29527;55.766;37.570;2023-02-10T02:12:16;100703.47;;;-0.44;56.31
37792;BME280;29527;55.766;37.570;2023-02-10T02:15:02;100673.91;;;-0.57;56.03
37792;BME280;29527;55.766;37.570;2023-02-10T02:17:43;100704.34;;;-0.44;56.08
37792;BME280;29527;55.766;37.570;2023-02-10T02:31:13;100676.25;;;-0.41;56.66
37792;BME280;29527;55.766;37.570;2023-02-10T02:33:49;100675.41;;;-0.44;56.11
37792;BME280;29527;55.766;37.570;2023-02-10T02:36:23;100673.69;;;-0.46;56.12
37792;BME280;29527;55.766;37.570;2023-02-10T02:38:49;100651.97;;;-0.56;55.49
37792;BME280;29527;55.766;37.570;2023-02-10T02:41:25;100655.44;;;-0.54;56.38
37792;BME280;29527;55.766;37.570;2023-02-10T02:43:51;100629.56;;;-0.74;55.98
37792;BME280;29527;55.766;37.570;2023-02-10T02:46:57;100646.66;;;-0.53;56.28
37792;BME280;29527;55.766;37.570;2023-02-10T02:55:13;100624.84;;;-0.58;56.11
37792;BME280;29527;55.766;37.570;2023-02-10T02:57:47;100625.69;;;-0.56;56.27
37792;BME280;29527;55.766;37.570;2023-02-10T03:00:20;100631.03;;;-0.61;56.37
37792;BME280;29527;55.766;37.570;2023-02-10T03:02:49;100631.03;;;-0.61;56.59
37792;BME280;29527;55.766;37.570;2023-02-10T03:05:20;100624.00;;;-0.60;56.31
37792;BME280;29527;55.766;37.570;2023-02-10T03:07:46;100622.28;;;-0.61;56.35
37792;BME280;29527;55.766;37.570;2023-02-10T03:10:13;100616.94;;;-0.58;56.65
37792;BME280;29527;55.766;37.570;2023-02-10T03:12:38;100589.06;;;-0.65;56.61
37792;BME280;29527;55.766;37.570;2023-02-10T03:15:04;100603.63;;;-0.50;56.57
37792;BME280;29527;55.766;37.570;2023-02-10T03:17:29;100602.81;;;-0.52;56.61
37792;BME280;29527;55.766;37.570;2023-02-10T03:19:55;100585.06;;;-0.42;56.33
37792;BME280;29527;55.766;37.570;2023-02-10T03:22:20;100590.44;;;-0.49;56.34
37792;BME280;29527;55.766;37.570;2023-02-10T03:24:46;100593.13;;;-0.50;56.56
37792;BME280;29527;55.766;37.570;2023-02-10T03:27:11;100580.09;;;-0.56;56.33
37792;BME280;29527;55.766;37.570;2023-02-10T03:29:37;100572.25;;;-0.58;56.64
37792;BME280;29527;55.766;37.570;2023-02-10T03:32:02;100566.16;;;-0.60;56.38
37792;BME280;29527;55.766;37.570;2023-02-10T03:34:30;100538.34;;;-0.72;56.63
37792;BME280;29527;55.766;37.570;2023-02-10T03:36:56;100524.53;;;-0.82;56.67
37792;BME280;29527;55.766;37.570;2023-02-10T03:39:22;100554.03;;;-0.67;56.81
37792;BME280;29527;55.766;37.570;2023-02-10T03:41:47;100554.91;;;-0.67;56.72
37792;BME280;29527;55.766;37.570;2023-02-10T03:44:13;100547.16;;;-0.73;57.02
37792;BME280;29527;55.766;37.570;2023-02-10T03:46:38;100540.00;;;-0.68;56.93
37792;BME280;29527;55.766;37.570;2023-02-10T03:49:04;100528.75;;;-0.73;56.85
37792;BME280;29527;55.766;37.570;2023-02-10T03:51:30;100527.84;;;-0.74;57.02
37792;BME280;29527;55.766;37.570;2023-02-10T03:53:55;100519.06;;;-0.73;57.02
37792;BME280;29527;55.766;37.570;2023-02-10T03:56:21;100524.41;;;-0.76;56.82
37792;BME280;29527;55.766;37.570;2023-02-10T03:58:46;100511.38;;;-0.80;57.22
37792;BME280;29527;55.766;37.570;2023-02-10T04:01:14;100504.16;;;-0.72;56.70
37792;BME280;29527;55.766;37.570;2023-02-10T04:03:40;100503.50;;;-0.80;57.04
37792;BME280;29527;55.766;37.570;2023-02-10T04:06:06;100515.75;;;-0.81;57.03
37792;BME280;29527;55.766;37.570;2023-02-10T04:08:32;100509.69;;;-0.84;57.54
37792;BME280;29527;55.766;37.570;2023-02-10T04:10:58;100498.41;;;-0.88;57.69
37792;BME280;29527;55.766;37.570;2023-02-10T04:13:23;100500.94;;;-0.83;57.17
37792;BME280;29527;55.766;37.570;2023-02-10T04:16:02;100506.97;;;-0.80;57.35
37792;BME280;29527;55.766;37.570;2023-02-10T04:18:29;100475.06;;;-1.04;57.47
37792;BME280;29527;55.766;37.570;2023-02-10T04:20:54;100489.84;;;-0.96;57.56
37792;BME280;29527;55.766;37.570;2023-02-10T04:23:19;100473.31;;;-1.03;57.10
37792;BME280;29527;55.766;37.570;2023-02-10T04:25:45;100436.13;;;-1.25;57.14
37792;BME280;29527;55.766;37.570;2023-02-10T04:28:10;100491.59;;;-0.98;57.47
37792;BME280;29527;55.766;37.570;2023-02-10T04:30:36;100435.22;;;-1.24;58.05
37792;BME280;29527;55.766;37.570;2023-02-10T04:33:01;100475.00;;;-1.01;57.80
37792;BME280;29527;55.766;37.570;2023-02-10T04:35:27;100475.84;;;-0.98;58.24
37792;BME280;29527;55.766;37.570;2023-02-10T04:37:52;100464.41;;;-0.97;57.73
37792;BME280;29527;55.766;37.570;2023-02-10T04:40:18;100465.44;;;-1.03;58.02
37792;BME280;29527;55.766;37.570;2023-02-10T04:42:43;100472.50;;;-1.05;58.26
37792;BME280;29527;55.766;37.570;2023-02-10T04:45:09;100467.25;;;-1.07;58.34
37792;BME280;29527;55.766;37.570;2023-02-10T04:47:34;100469.94;;;-1.08;58.34
37792;BME280;29527;55.766;37.570;2023-02-10T04:50:00;100484.81;;;-1.09;58.34
37792;BME280;29527;55.766;37.570;2023-02-10T04:52:25;100469.16;;;-1.13;58.01
37792;BME280;29527;55.766;37.570;2023-02-10T04:54:50;100469.09;;;-1.10;58.36
37792;BME280;29527;55.766;37.570;2023-02-10T04:57:16;100474.31;;;-1.09;58.59
37792;BME280;29527;55.766;37.570;2023-02-10T04:59:41;100473.31;;;-1.03;58.68
37792;BME280;29527;55.766;37.570;2023-02-10T05:02:07;100465.38;;;-1.02;58.24
37792;BME280;29527;55.766;37.570;2023-02-10T05:04:32;100464.53;;;-1.02;58.28
37792;BME280;29527;55.766;37.570;2023-02-10T05:06:58;100463.59;;;-0.99;58.05
37792;BME280;29527;55.766;37.570;2023-02-10T05:09:26;100473.19;;;-0.98;57.71
37792;BME280;29527;55.766;37.570;2023-02-10T05:11:52;100463.81;;;-1.09;58.12
37792;BME280;29527;55.766;37.570;2023-02-10T05:14:18;100468.31;;;-1.16;58.41
37792;BME280;29527;55.766;37.570;2023-02-10T05:16:43;100450.13;;;-1.25;57.86
37792;BME280;29527;55.766;37.570;2023-02-10T05:19:09;100478.22;;;-1.28;58.49
37792;BME280;29527;55.766;37.570;2023-02-10T05:21:35;100471.31;;;-1.33;58.99
37792;BME280;29527;55.766;37.570;2023-02-10T05:24:01;100459.97;;;-1.35;58.83
37792;BME280;29527;55.766;37.570;2023-02-10T05:26:26;100459.00;;;-1.31;59.19
37792;BME280;29527;55.766;37.570;2023-02-10T05:28:52;100446.63;;;-1.24;58.51
37792;BME280;29527;55.766;37.570;2023-02-10T05:31:17;100457.06;;;-1.22;58.91
37792;BME280;29527;55.766;37.570;2023-02-10T05:33:43;100445.72;;;-1.24;58.41
37792;BME280;29527;55.766;37.570;2023-02-10T05:36:09;100432.88;;;-1.37;59.09
37792;BME280;29527;55.766;37.570;2023-02-10T05:38:34;100438.03;;;-1.32;59.23
37792;BME280;29527;55.766;37.570;2023-02-10T05:41:00;100437.31;;;-1.40;59.39
37792;BME280;29527;55.766;37.570;2023-02-10T05:43:25;100435.44;;;-1.35;58.93
37792;BME280;29527;55.766;37.570;2023-02-10T05:45:51;100421.53;;;-1.39;58.65
37792;BME280;29527;55.766;37.570;2023-02-10T05:48:16;100414.59;;;-1.41;58.99
37792;BME280;29527;55.766;37.570;2023-02-10T05:50:42;100410.00;;;-1.32;59.12
37792;BME280;29527;55.766;37.570;2023-02-10T05:53:07;100399.09;;;-1.14;58.29
37792;BME280;29527;55.766;37.570;2023-02-10T05:55:33;100408.34;;;-0.60;57.65
37792;BME280;29527;55.766;37.570;2023-02-10T05:57:59;100409.50;;;-0.03;55.73
37792;BME280;29527;55.766;37.570;2023-02-10T06:00:24;100402.81;;;0.47;54.73
37792;BME280;29527;55.766;37.570;2023-02-10T06:02:50;100389.72;;;0.74;53.61
37792;BME280;29527;55.766;37.570;2023-02-10T06:05:15;100388.91;;;1.00;53.20
37792;BME280;29527;55.766;37.570;2023-02-10T06:07:41;100381.72;;;1.33;52.06
37792;BME280;29527;55.766;37.570;2023-02-10T06:10:06;100384.44;;;1.56;51.52
37792;BME280;29527;55.766;37.570;2023-02-10T06:12:32;100377.34;;;1.58;51.77
37792;BME280;29527;55.766;37.570;2023-02-10T06:14:58;100388.13;;;1.52;51.06
37792;BME280;29527;55.766;37.570;2023-02-10T06:17:23;100374.78;;;1.57;51.35
37792;BME280;29527;55.766;37.570;2023-02-10T06:19:49;100374.56;;;2.60;50.09
37792;BME280;29527;55.766;37.570;2023-02-10T06:22:15;100368.97;;;4.93;44.69
37792;BME280;29527;55.766;37.570;2023-02-10T06:24:40;100357.56;;;6.47;40.88
37792;BME280;29527;55.766;37.570;2023-02-10T06:27:06;100348.22;;;7.35;39.16
37792;BME280;29527;55.766;37.570;2023-02-10T06:29:32;100351.00;;;9.21;35.91
37792;BME280;29527;55.766;37.570;2023-02-10T06:31:58;100345.78;;;9.85;33.67
37792;BME280;29527;55.766;37.570;2023-02-10T06:34:23;100337.47;;;8.96;34.45
37792;BME280;29527;55.766;37.570;2023-02-10T06:36:48;100339.44;;;7.49;36.73
37792;BME280;29527;55.766;37.570;2023-02-10T06:39:14;100339.69;;;6.17;39.75
37792;BME280;29527;55.766;37.570;2023-02-10T06:41:40;100332.81;;;7.10;38.25
37792;BME280;29527;55.766;37.570;2023-02-10T06:44:06;100321.03;;;9.02;34.62
37792;BME280;29527;55.766;37.570;2023-02-10T06:46:32;100299.28;;;9.22;34.11
37792;BME280;29527;55.766;37.570;2023-02-10T06:48:57;100293.03;;;8.95;34.16
37792;BME280;29527;55.766;37.570;2023-02-10T06:51:25;100270.88;;;9.33;33.55
37792;BME280;29527;55.766;37.570;2023-02-10T06:53:50;100265.78;;;10.32;31.76
37792;BME280;29527;55.766;37.570;2023-02-10T06:56:16;100282.13;;;10.03;32.09
37792;BME280;29527;55.766;37.570;2023-02-10T06:58:41;100277.59;;;8.86;33.30
37792;BME280;29527;55.766;37.570;2023-02-10T07:01:13;100283.19;;;7.39;36.45
37792;BME280;29527;55.766;37.570;2023-02-10T07:03:42;100274.28;;;5.97;37.93
37792;BME280;29527;55.766;37.570;2023-02-10T07:06:07;100258.63;;;4.88;39.56
37792;BME280;29527;55.766;37.570;2023-02-10T07:08:33;100248.28;;;4.28;40.88
37792;BME280;29527;55.766;37.570;2023-02-10T07:10:58;100243.41;;;3.80;41.94
37792;BME280;29527;55.766;37.570;2023-02-10T07:13:24;100228.56;;;3.38;43.23
37792;BME280;29527;55.766;37.570;2023-02-10T07:15:50;100222.72;;;3.09;43.21
37792;BME280;29527;55.766;37.570;2023-02-10T07:18:15;100209.72;;;3.04;43.62
37792;BME280;29527;55.766;37.570;2023-02-10T07:20:41;100224.31;;;3.13;43.97
37792;BME280;29527;55.766;37.570;2023-02-10T07:23:06;100211.13;;;3.91;42.12
37792;BME280;29527;55.766;37.570;2023-02-10T07:25:32;100212.22;;;4.43;40.73
37792;BME280;29527;55.766;37.570;2023-02-10T07:27:58;100218.03;;;4.86;40.78
37792;BME280;29527;55.766;37.570;2023-02-10T07:30:23;100196.34;;;5.47;39.21
37792;BME280;29527;55.766;37.570;2023-02-10T07:32:49;100194.19;;;7.42;36.11
37792;BME280;29527;55.766;37.570;2023-02-10T07:35:14;100189.47;;;10.27;31.84
37792;BME280;29527;55.766;37.570;2023-02-10T07:37:40;100173.31;;;12.48;28.30
37792;BME280;29527;55.766;37.570;2023-02-10T07:40:06;100195.66;;;14.17;25.56
37792;BME280;29527;55.766;37.570;2023-02-10T07:42:32;100174.81;;;15.27;23.94
37792;BME280;29527;55.766;37.570;2023-02-10T07:44:59;100169.34;;;15.09;23.53
37792;BME280;29527;55.766;37.570;2023-02-10T07:47:25;100167.19;;;13.21;25.45
37792;BME280;29527;55.766;37.570;2023-02-10T07:49:51;100170.84;;;11.32;27.51
37792;BME280;29527;55.766;37.570;2023-02-10T07:52:20;100170.06;;;9.61;29.84
37792;BME280;29527;55.766;37.570;2023-02-10T07:54:45;100161.44;;;7.98;32.42
37792;BME280;29527;55.766;37.570;2023-02-10T07:57:11;100170.84;;;6.87;34.05
37792;BME280;29527;55.766;37.570;2023-02-10T07:59:36;100154.09;;;5.92;35.63
37792;BME280;29527;55.766;37.570;2023-02-10T08:02:04;100153.47;;;5.21;37.40
37792;BME280;29527;55.766;37.570;2023-02-10T08:04:31;100160.06;;;4.79;38.60
37792;BME280;29527;55.766;37.570;2023-02-10T08:06:56;100165.75;;;4.36;39.46
37792;BME280;29527;55.766;37.570;2023-02-10T08:09:22;100161.06;;;4.04;39.90
37792;BME280;29527;55.766;37.570;2023-02-10T08:11:47;100163.66;;;3.67;40.29
37792;BME280;29527;55.766;37.570;2023-02-10T08:14:13;100153.75;;;3.33;41.07
37792;BME280;29527;55.766;37.570;2023-02-10T08:16:38;100151.25;;;2.90;41.81
37792;BME280;29527;55.766;37.570;2023-02-10T08:19:04;100160.41;;;2.60;42.71
37792;BME280;29527;55.766;37.570;2023-02-10T08:21:29;100156.72;;;2.43;43.46
37792;BME280;29527;55.766;37.570;2023-02-10T08:23:55;100153.22;;;2.43;43.34
37792;BME280;29527;55.766;37.570;2023-02-10T08:26:22;100150.16;;;2.52;43.76
37792;BME280;29527;55.766;37.570;2023-02-10T08:28:48;100156.59;;;2.88;42.89
37792;BME280;29527;55.766;37.570;2023-02-10T08:31:13;100135.25;;;3.33;41.40
37792;BME280;29527;55.766;37.570;2023-02-10T08:33:39;100128.25;;;3.70;40.14
37792;BME280;29527;55.766;37.570;2023-02-10T08:36:08;100134.47;;;3.69;40.52
37792;BME280;29527;55.766;37.570;2023-02-10T08:38:34;100130.03;;;3.31;41.16
37792;BME280;29527;55.766;37.570;2023-02-10T08:41:00;100117.97;;;3.05;42.33
37792;BME280;29527;55.766;37.570;2023-02-10T08:43:26;100133.97;;;3.01;42.44
37792;BME280;29527;55.766;37.570;2023-02-10T08:45:55;100138.75;;;3.14;42.36
37792;BME280;29527;55.766;37.570;2023-02-10T08:48:21;100112.97;;;3.18;42.14
37792;BME280;29527;55.766;37.570;2023-02-10T08:50:46;100104.75;;;3.24;42.27
37792;BME280;29527;55.766;37.570;2023-02-10T08:53:11;100081.53;;;3.11;41.84
37792;BME280;29527;55.766;37.570;2023-02-10T08:55:37;100099.25;;;3.28;41.93
37792;BME280;29527;55.766;37.570;2023-02-10T08:58:03;100085.41;;;3.23;41.50
37792;BME280;29527;55.766;37.570;2023-02-10T09:00:28;100086.63;;;3.35;41.55
37792;BME280;29527;55.766;37.570;2023-02-10T09:02:54;100051.75;;;3.44;41.00
37792;BME280;29527;55.766;37.570;2023-02-10T09:05:19;100054.31;;;3.65;41.74
37792;BME280;29527;55.766;37.570;2023-02-10T09:07:45;100057.91;;;4.01;40.30
37792;BME280;29527;55.766;37.570;2023-02-10T09:10:12;100047.91;;;4.06;39.39
37792;BME280;29527;55.766;37.570;2023-02-10T09:12:38;100037.31;;;3.88;39.79
37792;BME280;29527;55.766;37.570;2023-02-10T09:15:05;100039.31;;;3.66;39.22
37792;BME280;29527;55.766;37.570;2023-02-10T09:17:30;100032.16;;;3.49;40.82
37792;BME280;29527;55.766;37.570;2023-02-10T09:19:56;100029.44;;;3.50;40.60
37792;BME280;29527;55.766;37.570;2023-02-10T09:22:21;100021.97;;;3.58;40.46
37792;BME280;29527;55.766;37.570;2023-02-10T09:24:48;100010.66;;;3.74;40.37
37792;BME280;29527;55.766;37.570;2023-02-10T09:27:18;100008.47;;;3.82;40.11
37792;BME280;29527;55.766;37.570;2023-02-10T09:29:44;100006.53;;;3.86;39.61
37792;BME280;29527;55.766;37.570;2023-02-10T09:32:09;99994.75;;;3.74;39.93
37792;BME280;29527;55.766;37.570;2023-02-10T09:34:35;99967.16;;;3.61;39.55
37792;BME280;29527;55.766;37.570;2023-02-10T09:37:01;99983.66;;;3.48;39.97
37792;BME280;29527;55.766;37.570;2023-02-10T09:39:28;99970.22;;;3.34;40.62
37792;BME280;29527;55.766;37.570;2023-02-10T09:42:03;99983.56;;;3.32;41.00
37792;BME280;29527;55.766;37.570;2023-02-10T09:44:34;99984.13;;;3.20;40.70
37792;BME280;29527;55.766;37.570;2023-02-10T09:52:29;99994.00;;;2.78;41.33
37792;BME280;29527;55.766;37.570;2023-02-10T09:54:58;99998.34;;;2.60;41.59
37792;BME280;29527;55.766;37.570;2023-02-10T09:58:00;100002.88;;;2.56;42.29
37792;BME280;29527;55.766;37.570;2023-02-10T10:00:39;100002.75;;;2.59;41.77
37792;BME280;29527;55.766;37.570;2023-02-10T10:03:07;100002.50;;;2.65;41.66
37792;BME280;29527;55.766;37.570;2023-02-10T10:05:57;100002.56;;;2.83;41.70
37792;BME280;29527;55.766;37.570;2023-02-10T10:08:57;99993.28;;;2.93;41.34
37792;BME280;29527;55.766;37.570;2023-02-10T10:11:50;99982.84;;;3.09;41.37
37792;BME280;29527;55.766;37.570;2023-02-10T10:14:29;99980.13;;;3.11;41.25
37792;BME280;29527;55.766;37.570;2023-02-10T10:30:44;99932.78;;;3.05;40.82
37792;BME280;29527;55.766;37.570;2023-02-10T10:33:23;99948.38;;;3.11;41.27
37792;BME280;29527;55.766;37.570;2023-02-10T10:35:50;99935.16;;;3.11;41.29
37792;BME280;29527;55.766;37.570;2023-02-10T10:38:29;99935.50;;;3.22;40.85
37792;BME280;29527;55.766;37.570;2023-02-10T10:40:56;99912.19;;;3.11;40.01
37792;BME280;29527;55.766;37.570;2023-02-10T10:43:28;99906.50;;;3.01;39.49
37792;BME280;29527;55.766;37.570;2023-02-10T10:46:06;99922.50;;;2.98;39.64
37792;BME280;29527;55.766;37.570;2023-02-10T10:48:37;99902.03;;;2.84;40.40
37792;BME280;29527;55.766;37.570;2023-02-10T10:51:05;99903.94;;;2.81;40.34
37792;BME280;29527;55.766;37.570;2023-02-10T10:56:15;99900.03;;;2.70;39.94
37792;BME280;29527;55.766;37.570;2023-02-10T10:58:43;99892.66;;;2.58;39.90
37792;BME280;29527;55.766;37.570;2023-02-10T11:01:11;99892.22;;;2.48;40.09
37792;BME280;29527;55.766;37.570;2023-02-10T11:03:37;99898.53;;;2.46;39.78
37792;BME280;29527;55.766;37.570;2023-02-10T11:06:13;99887.81;;;2.49;39.87
37792;BME280;29527;55.766;37.570;2023-02-10T11:08:43;99887.16;;;2.43;40.14
37792;BME280;29527;55.766;37.570;2023-02-10T11:11:12;99883.44;;;2.48;40.04
37792;BME280;29527;55.766;37.570;2023-02-10T11:13:41;99866.47;;;2.53;39.23
37792;BME280;29527;55.766;37.570;2023-02-10T11:16:13;99849.78;;;2.51;39.17
37792;BME280;29527;55.766;37.570;2023-02-10T11:18:54;99857.59;;;2.54;39.75
37792;BME280;29527;55.766;37.570;2023-02-10T11:21:20;99857.16;;;2.44;39.37
37792;BME280;29527;55.766;37.570;2023-02-10T11:23:51;99850.94;;;2.46;39.33
37792;BME280;29527;55.766;37.570;2023-02-10T11:28:44;99847.53;;;2.43;39.49
37792;BME280;29527;55.766;37.570;2023-02-10T11:36:40;99848.31;;;2.46;39.26
37792;BME280;29527;55.766;37.570;2023-02-10T11:39:37;99826.16;;;2.48;39.73
37792;BME280;29527;55.766;37.570;2023-02-10T11:42:32;99829.16;;;2.60;39.71
37792;BME280;29527;55.766;37.570;2023-02-10T11:47:36;99823.38;;;2.32;39.10
37792;BME280;29527;55.766;37.570;2023-02-10T11:50:03;99828.16;;;2.24;39.87
37792;BME280;29527;55.766;37.570;2023-02-10T11:52:32;99814.66;;;2.30;39.02
37792;BME280;29527;55.766;37.570;2023-02-10T11:55:00;99801.50;;;2.28;39.36
37792;BME280;29527;55.766;37.570;2023-02-10T12:00:30;99794.78;;;2.40;39.33
37792;BME280;29527;55.766;37.570;2023-02-10T12:06:05;99790.38;;;2.41;38.98
37792;BME280;29527;55.766;37.570;2023-02-10T12:19:12;99775.25;;;2.06;39.53
37792;BME280;29527;55.766;37.570;2023-02-10T12:21:55;99773.81;;;1.99;40.16
37792;BME280;29527;55.766;37.570;2023-02-10T12:30:07;99752.97;;;1.93;40.53
37792;BME280;29527;55.766;37.570;2023-02-10T12:38:43;99749.00;;;1.84;40.41
37792;BME280;29527;55.766;37.570;2023-02-10T12:41:26;99749.69;;;1.88;40.26
37792;BME280;29527;55.766;37.570;2023-02-10T12:52:33;99750.03;;;1.40;41.65
37792;BME280;29527;55.766;37.570;2023-02-10T12:55:13;99758.16;;;1.35;42.01
37792;BME280;29527;55.766;37.570;2023-02-10T12:57:41;99765.63;;;1.25;42.70
37792;BME280;29527;55.766;37.570;2023-02-10T13:00:15;99770.81;;;1.27;42.41
37792;BME280;29527;55.766;37.570;2023-02-10T13:03:12;99714.03;;;1.18;42.81
37792;BME280;29527;55.766;37.570;2023-02-10T13:05:45;99726.75;;;1.29;42.70
37792;BME280;29527;55.766;37.570;2023-02-10T13:08:16;99731.06;;;1.32;42.74
37792;BME280;29527;55.766;37.570;2023-02-10T13:10:50;99737.13;;;1.34;42.45
37792;BME280;29527;55.766;37.570;2023-02-10T13:13:22;99731.34;;;1.25;42.80
37792;BME280;29527;55.766;37.570;2023-02-10T13:16:00;99731.72;;;1.16;43.40
37792;BME280;29527;55.766;37.570;2023-02-10T13:18:31;99737.66;;;1.00;43.51
37792;BME280;29527;55.766;37.570;2023-02-10T13:31:54;99716.72;;;0.97;44.29
37792;BME280;29527;55.766;37.570;2023-02-10T13:34:24;99712.41;;;0.95;44.12
37792;BME280;29527;55.766;37.570;2023-02-10T13:39:33;99726.00;;;0.85;45.42
37792;BME280;29527;55.766;37.570;2023-02-10T13:42:08;99725.91;;;0.87;44.96
37792;BME280;29527;55.766;37.570;2023-02-10T13:44:36;99728.50;;;0.89;45.03
37792;BME280;29527;55.766;37.570;2023-02-10T13:49:34;99739.28;;;0.82;45.28
37792;BME280;29527;55.766;37.570;2023-02-10T13:52:23;99731.19;;;0.87;45.42
37792;BME280;29527;55.766;37.570;2023-02-10T13:57:38;99731.72;;;0.75;45.09
37792;BME280;29527;55.766;37.570;2023-02-10T14:00:20;99728.84;;;0.79;45.18
37792;BME280;29527;55.766;37.570;2023-02-10T14:05:51;99725.69;;;0.71;45.29
37792;BME280;29527;55.766;37.570;2023-02-10T14:11:28;99727.09;;;0.80;45.06
37792;BME280;29527;55.766;37.570;2023-02-10T14:14:15;99719.63;;;0.69;45.25
37792;BME280;29527;55.766;37.570;2023-02-10T14:16:42;99719.81;;;0.64;45.65
37792;BME280;29527;55.766;37.570;2023-02-10T14:19:22;99723.91;;;0.71;45.93
37792;BME280;29527;55.766;37.570;2023-02-10T14:21:48;99702.41;;;0.60;46.02
37792;BME280;29527;55.766;37.570;2023-02-10T14:24:16;99709.84;;;0.73;46.03
37792;BME280;29527;55.766;37.570;2023-02-10T14:26:44;99717.47;;;0.79;45.81
37792;BME280;29527;55.766;37.570;2023-02-10T14:29:15;99715.50;;;0.84;46.22
37792;BME280;29527;55.766;37.570;2023-02-10T14:31:42;99707.44;;;0.87;45.56
37792;BME280;29527;55.766;37.570;2023-02-10T14:34:23;99722.16;;;0.93;45.47
37792;BME280;29527;55.766;37.570;2023-02-10T14:36:53;99710.75;;;0.92;45.87
37792;BME280;29527;55.766;37.570;2023-02-10T14:39:24;99723.94;;;0.92;45.87
37792;BME280;29527;55.766;37.570;2023-02-10T14:41:50;99728.28;;;0.93;45.76
37792;BME280;29527;55.766;37.570;2023-02-10T14:44:39;99717.50;;;0.99;45.57
37792;BME280;29527;55.766;37.570;2023-02-10T14:47:06;99715.88;;;0.95;46.32
37792;BME280;29527;55.766;37.570;2023-02-10T14:49:31;99716.72;;;0.97;46.18